Time;durP1;ratioP1;P1;durP2;ratioP2;P2;SDS_P1;SDS_P2;PMS_P1;PMS_P2;Temp;Humidity;BMP_temperature;BMP_pressure;BME280_temperature;BME280_humidity;BME280_pressure;Samples;Min_cycle;Max_cycle;Signal;HPM_P1;HPM_P2
2022/04/10 00:02:24;;;;;;;1.95;0.60;;;;;;;;;;5092038;28;20024;-51
2022/04/10 00:04:50;;;;;;;1.40;0.90;;;;;;;;;;5092417;28;20032;-47
2022/04/10 00:07:16;;;;;;;1.80;0.98;;;;;;;;;;5092696;28;20034;-50
2022/04/10 00:09:42;;;;;;;2.55;0.88;;;;;;;;;;5091753;28;20121;-49
2022/04/10 00:12:08;;;;;;;0.75;0.70;;;;;;;;;;5092503;28;20020;-50
2022/04/10 00:14:34;;;;;;;1.20;0.88;;;;;;;;;;5091376;28;20040;-48
2022/04/10 00:17:00;;;;;;;1.20;0.65;;;;;;;;;;5092539;28;20063;-46
2022/04/10 00:19:26;;;;;;;1.55;0.70;;;;;;;;;;5090445;28;20020;-50
2022/04/10 00:21:53;;;;;;;2.25;0.93;;;;;;;;;;5092245;28;20049;-48
2022/04/10 00:24:19;;;;;;;1.60;1.10;;;;;;;;;;5092057;28;20063;-59
2022/04/10 00:26:45;;;;;;;1.25;0.90;;;;;;;;;;5091881;28;20028;-47
2022/04/10 00:29:11;;;;;;;1.65;0.75;;;;;;;;;;5092339;28;20032;-50
2022/04/10 00:31:37;;;;;;;2.13;0.77;;;;;;;;;;5091427;28;20032;-51
2022/04/10 00:34:03;;;;;;;1.83;0.90;;;;;;;;;;5092179;28;20035;-46
2022/04/10 00:36:29;;;;;;;1.95;0.95;;;;;;;;;;5090758;28;20024;-49
2022/04/10 00:38:55;;;;;;;1.52;0.93;;;;;;;;;;5092526;28;20518;-50
2022/04/10 00:41:21;;;;;;;2.92;1.00;;;;;;;;;;5091672;28;20024;-61
2022/04/10 00:44:04;;;;;;;1.25;0.77;;;;;;;;;;5091641;28;20133;-47
2022/04/10 00:46:30;;;;;;;0.70;0.70;;;;;;;;;;5091198;28;20505;-47
2022/04/10 00:48:56;;;;;;;1.85;1.00;;;;;;;;;;5092155;28;20043;-48
2022/04/10 00:51:40;;;;;;;1.00;0.73;;;;;;;;;;5091057;28;20024;-60
2022/04/10 00:54:08;;;;;;;1.10;0.73;;;;;;;;;;5091967;28;20469;-47
2022/04/10 00:56:35;;;;;;;1.42;0.73;;;;;;;;;;5091257;28;20082;-47
2022/04/10 00:59:02;;;;;;;0.70;0.68;;;;;;;;;;5092136;28;20024;-47
2022/04/10 01:01:28;;;;;;;1.42;0.88;;;;;;;;;;5091978;28;20457;-48
2022/04/10 01:03:54;;;;;;;1.30;0.77;;;;;;;;;;5092193;28;20024;-47
2022/04/10 01:06:21;;;;;;;1.48;0.95;;;;;;;;;;5091088;28;20613;-59
2022/04/10 01:08:47;;;;;;;1.50;0.90;;;;;;;;;;5091570;28;20020;-47
2022/04/10 01:11:14;;;;;;;1.27;0.90;;;;;;;;;;5091609;28;20025;-48
2022/04/10 01:13:40;;;;;;;1.08;0.80;;;;;;;;;;5091116;28;20761;-47
2022/04/10 01:16:06;;;;;;;1.13;0.70;;;;;;;;;;5091742;28;20077;-47
2022/04/10 01:18:32;;;;;;;1.60;0.80;;;;;;;;;;5091087;28;20024;-48
2022/04/10 01:21:02;;;;;;;1.30;0.80;;;;;;;;;;5091599;28;20023;-49
2022/04/10 01:23:28;;;;;;;1.70;0.85;;;;;;;;;;5091017;28;20024;-47
2022/04/10 01:25:54;;;;;;;1.70;1.10;;;;;;;;;;5091607;28;20032;-47
2022/04/10 01:28:20;;;;;;;2.28;0.75;;;;;;;;;;5094791;28;20012;-58
2022/04/10 01:30:46;;;;;;;1.92;0.90;;;;;;;;;;5094780;28;20550;-48
2022/04/10 01:33:12;;;;;;;1.40;0.90;;;;;;;;;;5095671;28;20043;-47
2022/04/10 01:35:38;;;;;;;1.27;0.70;;;;;;;;;;5095016;28;20028;-47
2022/04/10 01:38:05;;;;;;;1.10;0.73;;;;;;;;;;5095244;28;20056;-48
2022/04/10 01:40:33;;;;;;;2.20;0.80;;;;;;;;;;5094338;28;20440;-46
2022/04/10 01:42:59;;;;;;;1.00;0.77;;;;;;;;;;5095427;28;20042;-47
2022/04/10 01:45:25;;;;;;;1.73;0.77;;;;;;;;;;5094666;28;20042;-58
2022/04/10 01:47:51;;;;;;;0.95;0.73;;;;;;;;;;5095131;28;20408;-48
2022/04/10 01:50:18;;;;;;;1.52;0.80;;;;;;;;;;5095347;28;20024;-47
2022/04/10 01:52:44;;;;;;;1.58;0.60;;;;;;;;;;5094112;28;20022;-50
2022/04/10 01:55:10;;;;;;;1.20;0.60;;;;;;;;;;5095169;28;20028;-47
2022/04/10 01:57:36;;;;;;;1.20;0.88;;;;;;;;;;5092376;28;20039;-48
2022/04/10 02:00:02;;;;;;;1.25;0.80;;;;;;;;;;5094815;28;20025;-48
2022/04/10 02:02:28;;;;;;;3.00;0.80;;;;;;;;;;5094189;28;20032;-48
2022/04/10 02:04:54;;;;;;;1.10;0.80;;;;;;;;;;5094994;28;20032;-46
2022/04/10 02:07:20;;;;;;;1.23;1.02;;;;;;;;;;5094743;28;20031;-48
2022/04/10 02:09:46;;;;;;;0.80;0.70;;;;;;;;;;5094202;28;20024;-46
2022/04/10 02:12:12;;;;;;;1.13;0.80;;;;;;;;;;5076647;28;20030;-47
2022/04/10 02:14:38;;;;;;;1.33;0.77;;;;;;;;;;5094045;28;20032;-51
2022/04/10 02:17:05;;;;;;;1.48;0.70;;;;;;;;;;5094635;28;20031;-49
2022/04/10 02:19:31;;;;;;;1.27;0.80;;;;;;;;;;5093953;28;20533;-49
2022/04/10 02:21:59;;;;;;;0.80;0.80;;;;;;;;;;5094563;28;20027;-48
2022/04/10 02:24:25;;;;;;;1.08;0.82;;;;;;;;;;5093652;28;20032;-60
2022/04/10 02:26:51;;;;;;;1.27;0.70;;;;;;;;;;5094470;28;20020;-47
2022/04/10 02:29:17;;;;;;;1.95;0.73;;;;;;;;;;5094536;28;20016;-48
2022/04/10 02:31:43;;;;;;;2.50;0.70;;;;;;;;;;5093624;28;20107;-48
2022/04/10 02:34:09;;;;;;;1.17;0.88;;;;;;;;;;5094458;28;20024;-48
2022/04/10 02:36:35;;;;;;;1.88;0.80;;;;;;;;;;5092173;28;20020;-47
2022/04/10 02:39:01;;;;;;;1.85;0.77;;;;;;;;;;5094147;28;20020;-47
2022/04/10 02:41:27;;;;;;;0.80;0.70;;;;;;;;;;5093433;28;20074;-56
2022/04/10 02:43:53;;;;;;;1.33;0.80;;;;;;;;;;5093888;28;20465;-47
2022/04/10 02:46:19;;;;;;;0.68;0.68;;;;;;;;;;5094167;28;20036;-48
2022/04/10 02:48:45;;;;;;;1.10;0.88;;;;;;;;;;5093573;28;20024;-51
2022/04/10 02:51:11;;;;;;;1.15;0.75;;;;;;;;;;5094032;28;20017;-47
2022/04/10 02:53:37;;;;;;;1.30;0.85;;;;;;;;;;5092697;28;20523;-49
2022/04/10 02:56:03;;;;;;;1.58;0.73;;;;;;;;;;5094131;28;20122;-50
2022/04/10 02:58:29;;;;;;;0.77;0.77;;;;;;;;;;5092842;28;20485;-48
2022/04/10 03:00:55;;;;;;;1.20;0.77;;;;;;;;;;5094081;28;20024;-48
2022/04/10 03:03:21;;;;;;;1.42;0.60;;;;;;;;;;5093881;28;20078;-50
2022/04/10 03:05:47;;;;;;;0.75;0.60;;;;;;;;;;5092974;28;20028;-47
2022/04/10 03:08:13;;;;;;;1.20;0.77;;;;;;;;;;5093367;28;20020;-59
2022/04/10 03:10:39;;;;;;;1.23;0.70;;;;;;;;;;5092956;28;20484;-49
2022/04/10 03:13:05;;;;;;;0.98;0.77;;;;;;;;;;5093586;28;20025;-48
2022/04/10 03:15:31;;;;;;;1.50;0.85;;;;;;;;;;5093000;28;20055;-49
2022/04/10 03:17:57;;;;;;;0.90;0.70;;;;;;;;;;5093540;28;20111;-50
2022/04/10 03:20:23;;;;;;;4.13;0.90;;;;;;;;;;5093499;28;20067;-52
2022/04/10 03:22:49;;;;;;;0.80;0.60;;;;;;;;;;5092886;28;20031;-48
2022/04/10 03:25:15;;;;;;;1.58;0.75;;;;;;;;;;5093255;28;20389;-48
2022/04/10 03:27:41;;;;;;;0.85;0.60;;;;;;;;;;5092593;28;20130;-49
2022/04/10 03:30:08;;;;;;;0.80;0.70;;;;;;;;;;5092995;28;20103;-47
2022/04/10 03:32:34;;;;;;;0.85;0.80;;;;;;;;;;5092131;28;20492;-48
2022/04/10 03:35:00;;;;;;;0.70;0.70;;;;;;;;;;5093693;28;20040;-48
2022/04/10 03:37:26;;;;;;;1.40;0.73;;;;;;;;;;5092783;28;20020;-60
2022/04/10 03:39:52;;;;;;;1.23;0.80;;;;;;;;;;5092740;28;20063;-51
2022/04/10 03:42:18;;;;;;;0.63;0.55;;;;;;;;;;5093054;28;20058;-48
2022/04/10 03:44:44;;;;;;;0.90;0.70;;;;;;;;;;5091778;28;20056;-47
2022/04/10 03:47:10;;;;;;;1.50;0.70;;;;;;;;;;5092975;28;20028;-48
2022/04/10 03:49:36;;;;;;;1.48;0.75;;;;;;;;;;5090156;28;20062;-48
2022/04/10 03:52:02;;;;;;;1.08;0.60;;;;;;;;;;5093281;28;20098;-47
2022/04/10 03:54:28;;;;;;;1.35;0.68;;;;;;;;;;5092051;28;20061;-60
2022/04/10 03:56:54;;;;;;;0.95;0.55;;;;;;;;;;5093096;28;20028;-49
2022/04/10 03:59:20;;;;;;;1.30;0.70;;;;;;;;;;5092576;28;20054;-49
2022/04/10 04:01:46;;;;;;;2.85;0.95;;;;;;;;;;5091984;28;20555;-47
2022/04/10 04:04:12;;;;;;;0.70;0.57;;;;;;;;;;5092641;28;20069;-51
2022/04/10 04:06:38;;;;;;;0.75;0.60;;;;;;;;;;5091890;28;20031;-47
2022/04/10 04:09:04;;;;;;;1.02;0.60;;;;;;;;;;5092319;28;20031;-49
2022/04/10 04:11:30;;;;;;;1.27;0.60;;;;;;;;;;5091679;28;20062;-49
2022/04/10 04:13:56;;;;;;;1.33;0.73;;;;;;;;;;5091146;28;20040;-47
2022/04/10 04:16:22;;;;;;;0.80;0.70;;;;;;;;;;5092501;28;20027;-47
2022/04/10 04:18:49;;;;;;;1.48;0.57;;;;;;;;;;5091585;28;20024;-48
2022/04/10 04:21:15;;;;;;;1.60;0.80;;;;;;;;;;5092376;28;20484;-49
2022/04/10 04:23:41;;;;;;;1.00;0.50;;;;;;;;;;5091612;28;20103;-49
2022/04/10 04:26:07;;;;;;;1.15;0.80;;;;;;;;;;5091909;28;20111;-47
2022/04/10 04:28:36;;;;;;;1.10;0.70;;;;;;;;;;5091511;28;20038;-48
2022/04/10 04:31:02;;;;;;;1.33;0.68;;;;;;;;;;5092169;28;20046;-48
2022/04/10 04:33:28;;;;;;;1.15;0.63;;;;;;;;;;5091928;28;20024;-59
2022/04/10 04:35:54;;;;;;;0.50;0.50;;;;;;;;;;5091559;28;20085;-49
2022/04/10 04:38:20;;;;;;;1.15;0.70;;;;;;;;;;5092543;28;20016;-48
2022/04/10 04:40:45;;;;;;;0.98;0.70;;;;;;;;;;5091022;28;20085;-51
2022/04/10 04:43:11;;;;;;;0.77;0.60;;;;;;;;;;5091943;28;20027;-47
2022/04/10 04:45:37;;;;;;;1.50;0.98;;;;;;;;;;5089726;28;20058;-48
2022/04/10 04:48:04;;;;;;;0.60;0.50;;;;;;;;;;5092211;28;20513;-51
2022/04/10 04:50:30;;;;;;;1.33;0.88;;;;;;;;;;5091615;28;20111;-59
2022/04/10 04:52:56;;;;;;;2.10;0.80;;;;;;;;;;5091676;28;20059;-48
2022/04/10 04:55:22;;;;;;;1.42;0.80;;;;;;;;;;5092388;28;20028;-46
2022/04/10 04:57:48;;;;;;;1.00;0.70;;;;;;;;;;5091113;28;20032;-47
2022/04/10 05:00:14;;;;;;;1.02;0.70;;;;;;;;;;5090605;28;20395;-56
2022/04/10 05:02:40;;;;;;;0.65;0.60;;;;;;;;;;5093129;28;20451;-58
2022/04/10 05:05:06;;;;;;;0.80;0.70;;;;;;;;;;5094536;28;20111;-49
2022/04/10 05:07:32;;;;;;;2.25;0.90;;;;;;;;;;5095401;28;20020;-61
2022/04/10 05:09:58;;;;;;;0.98;0.65;;;;;;;;;;5095475;28;20016;-50
2022/04/10 05:12:24;;;;;;;1.27;0.77;;;;;;;;;;5095381;28;20016;-55
2022/04/10 05:14:50;;;;;;;2.42;0.50;;;;;;;;;;5094592;28;20621;-54
2022/04/10 05:17:17;;;;;;;1.10;0.80;;;;;;;;;;5094886;28;20491;-53
2022/04/10 05:19:43;;;;;;;2.90;0.60;;;;;;;;;;5094506;28;20115;-53
2022/04/10 05:22:09;;;;;;;2.17;0.68;;;;;;;;;;5095646;28;20099;-52
2022/04/10 05:24:35;;;;;;;1.67;0.90;;;;;;;;;;5095000;28;20028;-53
2022/04/10 05:27:01;;;;;;;1.23;0.50;;;;;;;;;;5096198;28;20044;-52
2022/04/10 05:29:27;;;;;;;0.82;0.63;;;;;;;;;;5095826;28;20016;-52
2022/04/10 05:31:53;;;;;;;0.80;0.60;;;;;;;;;;5094767;28;20046;-50
2022/04/10 05:34:19;;;;;;;0.80;0.60;;;;;;;;;;5095507;28;20035;-53
2022/04/10 05:36:45;;;;;;;0.75;0.73;;;;;;;;;;5094646;28;20400;-51
2022/04/10 05:39:11;;;;;;;1.98;1.40;;;;;;;;;;5095122;28;20023;-55
2022/04/10 05:41:37;;;;;;;1.30;0.60;;;;;;;;;;5094522;28;20024;-51
2022/04/10 05:44:03;;;;;;;0.93;0.70;;;;;;;;;;5095025;28;20052;-55
2022/04/10 05:46:29;;;;;;;1.52;0.85;;;;;;;;;;5096055;28;20039;-59
2022/04/10 05:48:55;;;;;;;2.45;0.70;;;;;;;;;;5095831;28;20025;-58
2022/04/10 05:51:21;;;;;;;1.20;0.60;;;;;;;;;;5095548;28;20031;-53
2022/04/10 05:53:47;;;;;;;0.93;0.63;;;;;;;;;;5097313;28;20031;-55
2022/04/10 05:56:13;;;;;;;1.60;0.70;;;;;;;;;;5095841;28;20016;-56
2022/04/10 05:58:40;;;;;;;1.17;0.60;;;;;;;;;;5094875;28;20017;-52
2022/04/10 06:01:06;;;;;;;1.20;1.02;;;;;;;;;;5094791;28;20364;-50
2022/04/10 06:03:32;;;;;;;0.77;0.70;;;;;;;;;;5094612;28;20342;-60
2022/04/10 06:05:58;;;;;;;1.27;0.60;;;;;;;;;;5095125;28;20085;-53
2022/04/10 06:08:24;;;;;;;0.70;0.50;;;;;;;;;;5094736;28;20027;-54
2022/04/10 06:10:50;;;;;;;3.53;0.60;;;;;;;;;;5093827;28;20028;-52
2022/04/10 06:13:17;;;;;;;0.80;0.60;;;;;;;;;;5093847;28;20021;-53
2022/04/10 06:15:43;;;;;;;0.80;0.63;;;;;;;;;;5093705;28;20513;-53
2022/04/10 06:18:09;;;;;;;1.05;0.70;;;;;;;;;;5094877;28;20420;-54
2022/04/10 06:20:35;;;;;;;0.90;0.60;;;;;;;;;;5093880;28;20024;-56
2022/04/10 06:23:01;;;;;;;1.40;0.70;;;;;;;;;;5094162;28;20033;-54
2022/04/10 06:25:27;;;;;;;4.63;0.75;;;;;;;;;;5093665;28;20024;-57
2022/04/10 06:27:55;;;;;;;0.95;0.50;;;;;;;;;;5093249;28;20024;-55
2022/04/10 06:30:21;;;;;;;1.23;0.68;;;;;;;;;;5091527;28;20057;-55
2022/04/10 06:32:47;;;;;;;0.82;0.50;;;;;;;;;;5092980;28;20481;-57
2022/04/10 06:35:14;;;;;;;1.42;0.70;;;;;;;;;;5094014;28;20045;-56
2022/04/10 06:37:40;;;;;;;2.20;1.13;;;;;;;;;;5094788;28;20023;-58
2022/04/10 06:40:06;;;;;;;5.38;1.30;;;;;;;;;;5093562;28;20028;-54
2022/04/10 06:42:32;;;;;;;5.65;1.58;;;;;;;;;;5092430;28;20377;-61
2022/04/10 06:44:58;;;;;;;3.90;1.25;;;;;;;;;;5092422;28;20048;-59
2022/04/10 06:47:27;;;;;;;1.13;0.77;;;;;;;;;;5093798;28;20019;-50
2022/04/10 06:49:53;;;;;;;2.78;1.08;;;;;;;;;;5092981;28;20016;-51
2022/04/10 06:52:19;;;;;;;3.58;1.40;;;;;;;;;;5093547;28;20074;-53
2022/04/10 06:54:45;;;;;;;2.63;1.90;;;;;;;;;;5092641;28;20028;-59
2022/04/10 06:57:11;;;;;;;1.98;1.20;;;;;;;;;;5093299;28;20485;-58
2022/04/10 06:59:37;;;;;;;2.42;1.10;;;;;;;;;;5093093;28;20024;-57
2022/04/10 07:02:03;;;;;;;2.55;1.10;;;;;;;;;;5093648;28;20408;-54
2022/04/10 07:04:29;;;;;;;5.25;1.70;;;;;;;;;;5093637;28;20036;-54
2022/04/10 07:06:55;;;;;;;2.70;1.33;;;;;;;;;;5091452;28;20020;-56
2022/04/10 07:09:21;;;;;;;1.70;0.80;;;;;;;;;;5093003;28;20056;-53
2022/04/10 07:11:47;;;;;;;3.30;1.10;;;;;;;;;;5092247;28;20027;-58
2022/04/10 07:14:13;;;;;;;2.88;1.05;;;;;;;;;;5092921;28;20040;-57
2022/04/10 07:16:39;;;;;;;3.80;0.93;;;;;;;;;;5089111;28;20095;-59
2022/04/10 07:19:06;;;;;;;2.75;1.30;;;;;;;;;;5092995;28;20103;-56
2022/04/10 07:24:16;;;;;;;2.42;0.90;;;;;;;;;;5090661;28;20077;-54
2022/04/10 07:26:42;;;;;;;2.33;1.00;;;;;;;;;;5092565;28;20453;-58
2022/04/10 07:29:12;;;;;;;2.75;1.08;;;;;;;;;;5093111;28;20025;-58
2022/04/10 07:31:38;;;;;;;1.95;0.90;;;;;;;;;;5091917;28;20069;-61
2022/04/10 07:34:04;;;;;;;1.95;0.80;;;;;;;;;;5090605;28;20098;-62
2022/04/10 07:36:31;;;;;;;2.65;1.58;;;;;;;;;;5092676;28;20034;-53
2022/04/10 07:38:57;;;;;;;1.25;0.98;;;;;;;;;;5092635;28;20023;-58
2022/04/10 07:41:23;;;;;;;2.20;1.15;;;;;;;;;;5092997;28;20028;-59
2022/04/10 07:43:49;;;;;;;3.00;1.08;;;;;;;;;;5092491;28;20028;-58
2022/04/10 07:49:00;;;;;;;2.38;1.10;;;;;;;;;;5093522;28;20047;-59
2022/04/10 07:51:26;;;;;;;1.75;0.80;;;;;;;;;;5092710;28;20020;-57
2022/04/10 07:53:54;;;;;;;1.40;0.70;;;;;;;;;;5091939;28;20024;-56
2022/04/10 07:56:21;;;;;;;4.18;0.93;;;;;;;;;;5091445;28;20473;-54
2022/04/10 07:58:47;;;;;;;3.08;1.20;;;;;;;;;;5091725;28;20441;-59
2022/04/10 08:01:13;;;;;;;1.63;0.90;;;;;;;;;;5092520;28;20020;-58
2022/04/10 08:03:39;;;;;;;2.53;1.02;;;;;;;;;;5107905;28;20383;-59
2022/04/10 08:06:05;;;;;;;2.05;0.80;;;;;;;;;;5113024;28;20070;-57
2022/04/10 08:08:31;;;;;;;2.13;1.27;;;;;;;;;;5112729;28;20023;-51
2022/04/10 08:10:57;;;;;;;2.08;0.82;;;;;;;;;;5112203;28;20020;-57
2022/04/10 08:13:23;;;;;;;1.88;0.88;;;;;;;;;;5112645;28;20364;-60
2022/04/10 08:15:49;;;;;;;3.22;0.90;;;;;;;;;;5111720;28;20085;-61
2022/04/10 08:18:15;;;;;;;1.70;0.93;;;;;;;;;;5112706;28;20031;-58
2022/04/10 08:20:42;;;;;;;2.05;1.05;;;;;;;;;;5111744;28;20020;-56
2022/04/10 08:23:08;;;;;;;2.90;0.90;;;;;;;;;;5112622;28;20012;-55
2022/04/10 08:25:34;;;;;;;2.75;1.08;;;;;;;;;;5112572;28;20078;-59
2022/04/10 08:28:00;;;;;;;1.83;0.80;;;;;;;;;;5111796;27;20028;-58
2022/04/10 08:30:27;;;;;;;2.10;1.00;;;;;;;;;;5112518;28;20015;-54
2022/04/10 08:32:53;;;;;;;1.50;0.65;;;;;;;;;;5111172;28;20468;-59
2022/04/10 08:35:19;;;;;;;1.48;1.05;;;;;;;;;;5112368;28;20032;-55
2022/04/10 08:37:45;;;;;;;1.55;1.30;;;;;;;;;;5111279;28;20016;-56
2022/04/10 08:40:11;;;;;;;1.75;0.77;;;;;;;;;;5112383;28;20143;-52
2022/04/10 08:42:38;;;;;;;2.92;1.02;;;;;;;;;;5112015;28;20031;-60
2022/04/10 08:45:06;;;;;;;0.80;0.60;;;;;;;;;;5109458;28;20079;-59
2022/04/10 08:47:34;;;;;;;1.75;0.70;;;;;;;;;;5111330;28;20312;-60
2022/04/10 08:50:00;;;;;;;2.45;1.20;;;;;;;;;;5111255;28;20469;-56
2022/04/10 08:52:27;;;;;;;1.13;0.70;;;;;;;;;;5112291;28;20060;-59
2022/04/10 08:54:52;;;;;;;2.15;1.00;;;;;;;;;;5111484;28;20384;-54
2022/04/10 08:57:19;;;;;;;2.55;1.10;;;;;;;;;;5111876;28;20095;-61
2022/04/10 08:59:45;;;;;;;4.35;1.02;;;;;;;;;;5111482;28;20024;-55
2022/04/10 09:02:12;;;;;;;1.35;0.68;;;;;;;;;;5117294;28;20456;-59
2022/04/10 09:04:39;;;;;;;1.38;0.73;;;;;;;;;;5132952;28;20084;-60
2022/04/10 09:07:08;;;;;;;2.83;1.20;;;;;;;;;;5134248;28;20566;-58
2022/04/10 09:09:35;;;;;;;1.02;0.80;;;;;;;;;;5132959;28;20102;-55
2022/04/10 09:12:01;;;;;;;2.58;0.98;;;;;;;;;;5131557;28;20499;-53
2022/04/10 09:14:42;;;;;;;2.10;0.75;;;;;;;;;;5135689;28;20027;-55
2022/04/10 09:17:15;;;;;;;1.60;0.80;;;;;;;;;;5132809;28;20026;-54
2022/04/10 09:19:45;;;;;;;2.15;1.05;;;;;;;;;;5131949;28;20023;-64
2022/04/10 09:22:33;;;;;;;1.95;0.98;;;;;;;;;;5132486;28;20019;-60
2022/04/10 09:25:02;;;;;;;3.05;0.70;;;;;;;;;;5131501;28;20062;-53
2022/04/10 09:27:30;;;;;;;1.50;1.00;;;;;;;;;;5132587;28;20062;-57
2022/04/10 09:29:56;;;;;;;1.10;0.65;;;;;;;;;;5131620;28;20456;-59
2022/04/10 09:32:22;;;;;;;1.65;0.80;;;;;;;;;;5132058;28;20034;-59
2022/04/10 09:34:56;;;;;;;3.20;0.82;;;;;;;;;;5131745;28;20387;-55
2022/04/10 09:37:22;;;;;;;2.97;1.20;;;;;;;;;;5132985;28;20102;-58
2022/04/10 09:39:48;;;;;;;4.40;1.48;;;;;;;;;;5131801;28;20491;-59
2022/04/10 09:42:14;;;;;;;4.18;1.08;;;;;;;;;;5132630;28;20034;-56
2022/04/10 09:44:41;;;;;;;2.05;1.10;;;;;;;;;;5131672;28;20047;-61
2022/04/10 09:47:08;;;;;;;2.53;1.10;;;;;;;;;;5112185;28;20077;-59
2022/04/10 09:49:41;;;;;;;1.42;0.70;;;;;;;;;;5097426;28;20093;-59
2022/04/10 09:52:08;;;;;;;1.65;0.93;;;;;;;;;;5115515;28;20063;-54
2022/04/10 09:54:35;;;;;;;2.42;0.95;;;;;;;;;;5115630;28;20481;-56
2022/04/10 09:57:02;;;;;;;2.95;1.00;;;;;;;;;;5116259;28;20035;-58
2022/04/10 09:59:31;;;;;;;2.60;0.70;;;;;;;;;;5119036;28;20365;-51
2022/04/10 10:01:57;;;;;;;2.80;0.80;;;;;;;;;;5113072;27;20016;-49
2022/04/10 10:04:23;;;;;;;2.05;0.95;;;;;;;;;;5113821;27;20028;-52
2022/04/10 10:06:50;;;;;;;1.67;0.73;;;;;;;;;;5113574;28;20034;-56
2022/04/10 10:09:16;;;;;;;1.83;0.95;;;;;;;;;;5115139;28;20028;-57
2022/04/10 10:11:42;;;;;;;3.25;0.82;;;;;;;;;;5114868;28;20333;-62
2022/04/10 10:14:09;;;;;;;1.60;0.95;;;;;;;;;;5114829;28;20483;-50
2022/04/10 10:16:36;;;;;;;1.05;0.80;;;;;;;;;;5114473;28;20031;-50
2022/04/10 10:19:02;;;;;;;3.25;0.77;;;;;;;;;;5113902;28;20048;-56
2022/04/10 10:21:28;;;;;;;1.33;0.85;;;;;;;;;;5115028;28;20024;-53
2022/04/10 10:23:55;;;;;;;2.75;0.93;;;;;;;;;;5113919;28;20417;-55
2022/04/10 10:26:24;;;;;;;1.35;0.77;;;;;;;;;;5114974;28;20063;-51
2022/04/10 10:29:04;;;;;;;1.70;0.90;;;;;;;;;;5114082;28;20396;-58
2022/04/10 10:31:49;;;;;;;5.93;0.90;;;;;;;;;;5114745;28;20028;-58
2022/04/10 10:34:15;;;;;;;2.75;1.50;;;;;;;;;;5094137;28;20095;-58
2022/04/10 10:36:41;;;;;;;4.35;0.88;;;;;;;;;;5094286;28;20056;-58
2022/04/10 10:39:08;;;;;;;1.75;0.70;;;;;;;;;;5093649;28;20020;-59
2022/04/10 10:41:35;;;;;;;1.35;0.60;;;;;;;;;;5094353;28;20053;-58
2022/04/10 10:44:18;;;;;;;1.13;0.60;;;;;;;;;;5093064;28;20055;-59
2022/04/10 10:46:56;;;;;;;3.47;1.30;;;;;;;;;;5110336;28;20048;-60
2022/04/10 10:49:22;;;;;;;3.47;1.00;;;;;;;;;;5114393;28;20023;-59
2022/04/10 10:51:49;;;;;;;1.27;0.77;;;;;;;;;;5113649;28;20092;-54
2022/04/10 10:54:20;;;;;;;1.60;0.90;;;;;;;;;;5114155;28;20403;-56
2022/04/10 10:56:47;;;;;;;3.70;1.73;;;;;;;;;;5113936;28;20376;-60
2022/04/10 10:59:27;;;;;;;2.38;0.98;;;;;;;;;;5114195;28;20023;-56
2022/04/10 11:02:01;;;;;;;1.35;0.68;;;;;;;;;;5114766;27;20026;-58
2022/04/10 11:04:31;;;;;;;1.20;0.70;;;;;;;;;;5134455;27;20076;-57
2022/04/10 11:07:11;;;;;;;2.38;0.88;;;;;;;;;;5116252;27;20027;-54
2022/04/10 11:09:46;;;;;;;2.17;0.90;;;;;;;;;;5134642;27;20019;-56
2022/04/10 11:12:16;;;;;;;3.30;0.95;;;;;;;;;;5134431;27;20102;-56
2022/04/10 11:14:45;;;;;;;2.88;0.70;;;;;;;;;;5134453;27;20421;-57
2022/04/10 11:17:18;;;;;;;2.33;0.90;;;;;;;;;;5115517;27;20455;-57
2022/04/10 11:19:45;;;;;;;1.60;0.90;;;;;;;;;;5134113;27;20418;-58
2022/04/10 11:22:30;;;;;;;1.85;0.90;;;;;;;;;;5134036;27;20027;-57
2022/04/10 11:25:00;;;;;;;5.78;2.15;;;;;;;;;;5133133;27;20027;-59
2022/04/10 11:27:42;;;;;;;2.70;1.02;;;;;;;;;;5134300;27;20522;-58
2022/04/10 11:30:08;;;;;;;3.53;1.30;;;;;;;;;;5132254;27;20050;-58
2022/04/10 11:32:45;;;;;;;2.33;1.08;;;;;;;;;;5134237;27;20019;-58
2022/04/10 11:35:37;;;;;;;1.10;0.70;;;;;;;;;;5133502;27;20058;-59
2022/04/10 11:38:03;;;;;;;;;;;;;;;;;;5129035;27;20035;-58
2022/04/10 11:40:33;;;;;;;2.63;0.90;;;;;;;;;;5133957;27;19903;-59
2022/04/10 11:43:02;;;;;;;1.27;0.70;;;;;;;;;;5133159;27;20102;-59
2022/04/10 11:45:29;;;;;;;7.43;1.05;;;;;;;;;;5128242;27;20101;-59
2022/04/10 11:47:56;;;;;;;4.68;1.00;;;;;;;;;;5112142;28;20103;-58
2022/04/10 11:50:22;;;;;;;5.25;1.13;;;;;;;;;;5112869;28;20358;-58
2022/04/10 11:52:57;;;;;;;1.75;0.70;;;;;;;;;;5112267;28;20016;-59
2022/04/10 11:55:34;;;;;;;2.67;1.02;;;;;;;;;;5113125;28;20046;-59
2022/04/10 11:58:00;;;;;;;1.98;1.10;;;;;;;;;;5112151;28;20024;-58
2022/04/10 12:00:27;;;;;;;1.98;0.82;;;;;;;;;;5112888;28;20020;-58
2022/04/10 12:02:53;;;;;;;3.00;0.73;;;;;;;;;;5122238;27;20022;-58
2022/04/10 12:05:20;;;;;;;2.78;1.00;;;;;;;;;;5114856;27;20038;-59
2022/04/10 12:07:46;;;;;;;1.73;1.00;;;;;;;;;;5132481;27;20476;-58
2022/04/10 12:10:18;;;;;;;4.10;0.90;;;;;;;;;;5131686;27;20024;-58
2022/04/10 12:12:45;;;;;;;4.53;1.08;;;;;;;;;;5133622;27;20026;-59
2022/04/10 12:15:15;;;;;;;5.65;0.98;;;;;;;;;;5132778;27;20102;-58
2022/04/10 12:17:41;;;;;;;7.93;1.35;;;;;;;;;;5133425;27;20023;-60
2022/04/10 12:20:08;;;;;;;6.47;1.88;;;;;;;;;;5132602;27;20607;-58
2022/04/10 12:22:34;;;;;;;3.42;0.70;;;;;;;;;;5132914;27;20039;-58
2022/04/10 12:25:01;;;;;;;5.40;1.10;;;;;;;;;;5132218;27;20066;-57
2022/04/10 12:27:27;;;;;;;5.15;1.10;;;;;;;;;;5132964;27;20079;-58
2022/04/10 12:29:54;;;;;;;2.55;1.08;;;;;;;;;;5132550;27;20023;-58
2022/04/10 12:32:21;;;;;;;4.88;1.02;;;;;;;;;;5123262;27;20027;-56
2022/04/10 12:34:47;;;;;;;7.90;1.67;;;;;;;;;;5112411;28;20377;-57
2022/04/10 12:37:13;;;;;;;5.68;0.98;;;;;;;;;;5111412;28;20023;-58
2022/04/10 12:39:40;;;;;;;3.97;0.93;;;;;;;;;;5112809;28;20024;-56
2022/04/10 12:42:07;;;;;;;2.80;1.30;;;;;;;;;;5111291;28;20080;-57
2022/04/10 12:44:33;;;;;;;1.73;0.73;;;;;;;;;;5112113;28;20052;-54
2022/04/10 12:46:59;;;;;;;7.28;1.02;;;;;;;;;;5111355;28;20028;-56
2022/04/10 12:49:25;;;;;;;4.57;1.02;;;;;;;;;;5112263;28;20024;-55
2022/04/10 12:51:56;;;;;;;5.75;1.00;;;;;;;;;;5111145;28;20019;-55
2022/04/10 12:54:52;;;;;;;3.10;0.90;;;;;;;;;;5112420;28;20020;-58
2022/04/10 12:57:28;;;;;;;1.90;1.27;;;;;;;;;;5073776;28;20040;-61
2022/04/10 12:59:54;;;;;;;5.68;1.38;;;;;;;;;;5093223;28;20027;-58
2022/04/10 13:02:21;;;;;;;4.15;1.02;;;;;;;;;;5118187;28;20038;-49
2022/04/10 13:04:54;;;;;;;3.95;1.35;;;;;;;;;;5132654;28;20368;-59
2022/04/10 13:07:20;;;;;;;3.80;1.10;;;;;;;;;;5132597;28;20034;-58
2022/04/10 13:10:06;;;;;;;1.83;0.95;;;;;;;;;;5133202;28;20023;-61
2022/04/10 13:12:33;;;;;;;1.63;0.73;;;;;;;;;;5125675;28;20055;-56
2022/04/10 13:14:59;;;;;;;1.90;1.02;;;;;;;;;;5132059;28;20023;-54
2022/04/10 13:17:36;;;;;;;2.67;0.77;;;;;;;;;;5132543;28;20031;-56
2022/04/10 13:20:05;;;;;;;2.97;1.00;;;;;;;;;;5131886;28;20027;-56
2022/04/10 13:22:32;;;;;;;2.28;0.90;;;;;;;;;;5134589;27;20026;-54
2022/04/10 13:24:58;;;;;;;3.50;1.15;;;;;;;;;;5135397;27;20023;-55
2022/04/10 13:27:24;;;;;;;2.80;0.73;;;;;;;;;;5136238;27;20419;-55
2022/04/10 13:29:50;;;;;;;2.72;1.52;;;;;;;;;;5136265;27;20066;-57
2022/04/10 13:32:17;;;;;;;3.17;0.63;;;;;;;;;;5135425;27;20023;-50
2022/04/10 13:34:43;;;;;;;2.33;1.10;;;;;;;;;;5135798;27;20156;-56
2022/04/10 13:37:09;;;;;;;4.20;1.20;;;;;;;;;;5135493;27;20035;-51
2022/04/10 13:39:35;;;;;;;4.05;0.88;;;;;;;;;;5131185;27;20035;-53
2022/04/10 13:42:02;;;;;;;1.77;0.80;;;;;;;;;;5135714;27;20019;-52
2022/04/10 13:44:28;;;;;;;2.33;0.90;;;;;;;;;;5136216;27;20497;-52
2022/04/10 13:46:54;;;;;;;1.60;0.80;;;;;;;;;;5117176;27;20027;-52
2022/04/10 13:49:20;;;;;;;1.77;1.10;;;;;;;;;;5115668;28;20024;-56
2022/04/10 13:51:46;;;;;;;3.20;0.82;;;;;;;;;;5115504;28;20023;-55
2022/04/10 13:54:12;;;;;;;2.60;0.88;;;;;;;;;;5114421;28;20020;-53
2022/04/10 13:56:38;;;;;;;1.63;1.05;;;;;;;;;;5096858;28;20032;-54
2022/04/10 13:59:04;;;;;;;3.17;1.00;;;;;;;;;;5114806;28;20032;-55
2022/04/10 14:01:30;;;;;;;2.15;0.60;;;;;;;;;;5115183;28;20372;-56
2022/04/10 14:03:56;;;;;;;5.68;1.20;;;;;;;;;;5114288;28;20027;-55
2022/04/10 14:06:22;;;;;;;3.95;0.88;;;;;;;;;;5114942;28;20027;-57
2022/04/10 14:08:48;;;;;;;3.25;1.25;;;;;;;;;;5118844;27;20046;-55
2022/04/10 14:11:14;;;;;;;3.20;0.90;;;;;;;;;;5134900;27;20075;-57
2022/04/10 14:13:40;;;;;;;1.50;1.15;;;;;;;;;;5135240;27;20015;-56
2022/04/10 14:16:06;;;;;;;3.17;0.80;;;;;;;;;;5134804;27;20487;-57
2022/04/10 14:18:32;;;;;;;2.65;0.82;;;;;;;;;;5117325;27;20031;-57
2022/04/10 14:20:59;;;;;;;1.15;0.80;;;;;;;;;;5134765;27;20031;-57
2022/04/10 14:23:25;;;;;;;2.35;0.68;;;;;;;;;;5135235;27;20028;-57
2022/04/10 14:25:51;;;;;;;1.33;0.70;;;;;;;;;;5135102;27;20038;-55
2022/04/10 14:28:17;;;;;;;2.20;0.90;;;;;;;;;;5133631;27;20031;-55
2022/04/10 14:30:43;;;;;;;1.95;0.70;;;;;;;;;;5134219;27;20023;-54
2022/04/10 14:33:09;;;;;;;3.72;0.60;;;;;;;;;;5134050;27;20045;-51
2022/04/10 14:35:35;;;;;;;4.25;1.05;;;;;;;;;;5130406;27;20506;-55
2022/04/10 14:38:01;;;;;;;2.08;1.00;;;;;;;;;;5113041;28;20026;-53
2022/04/10 14:40:27;;;;;;;2.28;0.95;;;;;;;;;;5114446;28;20024;-50
2022/04/10 14:42:53;;;;;;;2.15;1.05;;;;;;;;;;5115427;28;20027;-53
2022/04/10 14:45:19;;;;;;;2.17;0.80;;;;;;;;;;5114056;28;20046;-52
2022/04/10 14:47:45;;;;;;;5.00;0.70;;;;;;;;;;5114139;28;20102;-51
2022/04/10 14:50:11;;;;;;;3.20;1.00;;;;;;;;;;5113619;28;20490;-49